Time;durP1;ratioP1;P1;durP2;ratioP2;P2;SDS_P1;SDS_P2;PMS_P1;PMS_P2;Temp;Humidity;BMP_temperature;BMP_pressure;BME280_temperature;BME280_humidity;BME280_pressure;Samples;Min_cycle;Max_cycle;Signal;HPM_P1;HPM_P2
2022/03/13 00:01:04;;;;;;;56.77;19.17;;;4.30;15.30;;;;;;4997804;28;21168;-63
2022/03/13 00:03:33;;;;;;;58.63;18.80;;;4.30;15.40;;;;;;4999222;28;20606;-64
2022/03/13 00:06:00;;;;;;;58.30;19.90;;;4.30;15.30;;;;;;5003926;28;20475;-64
2022/03/13 00:08:33;;;;;;;59.77;20.07;;;4.20;15.10;;;;;;5001861;28;21028;-64
2022/03/13 00:11:01;;;;;;;62.17;19.40;;;4.20;15.30;;;;;;4996565;28;20467;-64
2022/03/13 00:13:31;;;;;;;56.30;18.80;;;4.20;15.20;;;;;;4997834;28;20491;-62
2022/03/13 00:16:01;;;;;;;61.97;18.63;;;4.10;15.40;;;;;;5002219;28;20555;-63
2022/03/13 00:18:29;;;;;;;58.40;19.80;;;4.10;15.50;;;;;;4996201;28;21180;-63
2022/03/13 00:20:57;;;;;;;57.57;19.27;;;4.00;15.30;;;;;;4994985;28;20475;-65
2022/03/13 00:23:25;;;;;;;62.03;18.80;;;4.00;15.40;;;;;;4997426;28;20486;-64
2022/03/13 00:25:54;;;;;;;54.37;18.67;;;4.00;15.30;;;;;;5001065;28;20468;-64
2022/03/13 00:28:21;;;;;;;53.87;17.57;;;4.00;15.20;;;;;;5001269;28;20544;-64
2022/03/13 00:30:51;;;;;;;55.90;18.97;;;3.90;15.20;;;;;;4999463;28;20559;-65
2022/03/13 00:33:21;;;;;;;52.60;16.43;;;3.80;15.10;;;;;;5000345;28;20890;-64
2022/03/13 00:35:49;;;;;;;53.50;17.47;;;3.90;15.20;;;;;;4997875;28;20490;-63
2022/03/13 00:38:19;;;;;;;61.97;15.53;;;3.80;15.10;;;;;;5000694;28;20470;-63
2022/03/13 00:40:51;;;;;;;55.60;16.67;;;3.80;15.10;;;;;;5005672;28;20474;-63
2022/03/13 00:43:21;;;;;;;51.50;14.60;;;3.80;14.90;;;;;;4996057;28;20487;-64
2022/03/13 00:45:47;;;;;;;51.07;15.43;;;3.80;14.80;;;;;;4999804;28;20556;-63
2022/03/13 00:48:15;;;;;;;51.50;15.73;;;3.80;14.70;;;;;;4995327;28;20842;-64
2022/03/13 00:50:42;;;;;;;51.30;15.87;;;3.80;14.60;;;;;;4997283;28;20472;-62
2022/03/13 00:53:08;;;;;;;53.40;15.00;;;3.80;14.60;;;;;;5001659;28;20483;-63
2022/03/13 00:55:40;;;;;;;54.73;15.43;;;3.70;14.50;;;;;;4994792;28;20461;-65
2022/03/13 00:58:06;;;;;;;53.47;16.27;;;3.70;14.50;;;;;;5002886;28;21004;-63
2022/03/13 01:00:35;;;;;;;52.07;15.13;;;3.70;14.50;;;;;;4997722;28;20470;-65
2022/03/13 01:03:02;;;;;;;50.97;14.60;;;3.60;14.40;;;;;;4995415;28;20492;-64
2022/03/13 01:05:29;;;;;;;51.23;14.53;;;3.60;14.30;;;;;;4994613;28;20455;-65
2022/03/13 01:07:59;;;;;;;58.03;14.40;;;3.60;14.30;;;;;;5006120;28;20464;-64
2022/03/13 01:10:26;;;;;;;54.17;15.13;;;3.60;14.40;;;;;;5002894;28;20571;-64
2022/03/13 01:12:53;;;;;;;52.07;15.80;;;3.50;14.30;;;;;;4994626;28;20977;-64
2022/03/13 01:15:21;;;;;;;57.20;18.00;;;3.50;14.40;;;;;;4996447;28;20547;-63
2022/03/13 01:17:50;;;;;;;51.93;16.97;;;3.50;14.40;;;;;;5000422;28;20540;-64
2022/03/13 01:20:19;;;;;;;53.30;14.83;;;3.50;14.30;;;;;;5001919;28;20491;-64
2022/03/13 01:22:46;;;;;;;57.97;17.80;;;3.50;14.30;;;;;;4997935;28;20459;-64
2022/03/13 01:25:15;;;;;;;55.97;17.40;;;3.40;14.60;;;;;;4990662;28;20467;-64
2022/03/13 01:27:43;;;;;;;53.30;16.67;;;3.40;14.70;;;;;;4999859;28;20466;-63
2022/03/13 01:30:13;;;;;;;56.60;17.70;;;3.40;14.70;;;;;;4998289;28;20464;-64
2022/03/13 01:32:40;;;;;;;56.87;19.03;;;3.40;14.80;;;;;;4990751;28;20476;-63
2022/03/13 01:35:09;;;;;;;52.87;17.13;;;3.40;14.80;;;;;;4992490;28;20488;-63
2022/03/13 01:37:38;;;;;;;54.00;17.17;;;3.40;15.00;;;;;;4998383;28;20471;-64
2022/03/13 01:40:08;;;;;;;57.87;18.80;;;3.30;15.30;;;;;;5001652;28;20463;-63
2022/03/13 01:42:35;;;;;;;52.57;16.00;;;3.30;15.20;;;;;;4998536;28;20459;-63
2022/03/13 01:45:02;;;;;;;51.17;15.60;;;3.20;15.10;;;;;;4995930;28;20499;-64
2022/03/13 01:47:29;;;;;;;52.40;14.60;;;3.20;15.00;;;;;;4991436;28;20468;-64
2022/03/13 01:49:57;;;;;;;50.47;15.03;;;3.20;15.10;;;;;;5000688;28;20464;-62
2022/03/13 01:52:27;;;;;;;49.83;15.40;;;3.10;15.00;;;;;;5008735;28;20887;-64
2022/03/13 01:54:55;;;;;;;48.70;14.60;;;3.10;15.00;;;;;;5000031;28;21166;-63
2022/03/13 01:57:23;;;;;;;53.60;17.50;;;3.10;15.00;;;;;;5000548;28;20456;-63
2022/03/13 01:59:51;;;;;;;51.97;16.33;;;3.10;15.10;;;;;;4999482;28;20464;-64
2022/03/13 02:02:20;;;;;;;55.10;18.30;;;3.10;15.20;;;;;;4997966;28;20482;-63
2022/03/13 02:04:51;;;;;;;53.77;16.80;;;3.00;15.50;;;;;;4994218;28;20579;-65
2022/03/13 02:07:18;;;;;;;57.90;17.93;;;3.00;15.80;;;;;;4998951;28;20460;-65
2022/03/13 02:09:47;;;;;;;54.10;17.47;;;3.00;15.70;;;;;;4993012;28;20476;-64
2022/03/13 02:12:14;;;;;;;54.97;17.60;;;2.90;15.90;;;;;;5004961;28;20478;-64
2022/03/13 02:14:41;;;;;;;53.20;17.83;;;2.90;16.00;;;;;;4996227;28;20502;-64
2022/03/13 02:17:08;;;;;;;51.60;16.30;;;2.90;16.20;;;;;;5005767;28;20459;-63
2022/03/13 02:19:34;;;;;;;54.30;16.77;;;2.90;16.20;;;;;;5002322;28;20467;-64
2022/03/13 02:22:01;;;;;;;57.40;16.87;;;2.80;16.10;;;;;;5002694;28;20464;-64
2022/03/13 02:24:29;;;;;;;55.10;17.77;;;2.80;16.10;;;;;;4997584;28;20488;-62
2022/03/13 02:27:00;;;;;;;53.73;15.60;;;2.80;16.30;;;;;;5000586;28;20468;-65
2022/03/13 02:29:27;;;;;;;53.20;15.87;;;2.70;16.10;;;;;;4999208;28;20551;-64
2022/03/13 02:31:54;;;;;;;52.90;15.63;;;2.70;16.30;;;;;;4999576;28;21020;-64
2022/03/13 02:34:21;;;;;;;53.13;16.67;;;2.70;16.40;;;;;;4998016;28;20983;-63
2022/03/13 02:37:01;;;;;;;54.10;16.20;;;2.70;16.40;;;;;;5000583;28;20467;-64
2022/03/13 02:39:34;;;;;;;57.10;18.27;;;2.60;16.50;;;;;;4996755;28;20494;-64
2022/03/13 02:42:01;;;;;;;56.93;16.70;;;2.60;16.70;;;;;;4996058;28;20468;-63
2022/03/13 02:44:28;;;;;;;52.47;15.80;;;2.50;16.80;;;;;;4999367;28;20480;-64
2022/03/13 02:47:01;;;;;;;51.43;15.80;;;2.50;16.90;;;;;;4996607;28;20468;-64
2022/03/13 02:49:31;;;;;;;52.70;16.10;;;2.50;16.90;;;;;;5001497;28;21163;-64
2022/03/13 02:52:00;;;;;;;52.73;16.67;;;2.50;17.00;;;;;;5004474;28;20476;-63
2022/03/13 02:54:27;;;;;;;57.67;17.50;;;2.50;16.90;;;;;;4996597;28;20496;-63
2022/03/13 02:56:55;;;;;;;56.70;16.60;;;2.50;17.00;;;;;;4995643;28;20571;-64
2022/03/13 02:59:22;;;;;;;58.63;18.53;;;2.40;16.80;;;;;;4995976;28;20547;-64
2022/03/13 03:01:49;;;;;;;51.47;16.63;;;2.40;16.70;;;;;;4998599;28;20480;-64
2022/03/13 03:04:17;;;;;;;54.53;15.10;;;2.40;16.50;;;;;;4996903;28;21299;-65
2022/03/13 03:06:54;;;;;;;56.60;15.80;;;2.40;16.40;;;;;;4996624;28;20467;-65
2022/03/13 03:09:21;;;;;;;49.77;14.50;;;2.40;16.60;;;;;;4995166;28;20544;-63
2022/03/13 03:11:48;;;;;;;52.10;15.20;;;2.40;16.60;;;;;;5000099;28;20497;-64
2022/03/13 03:14:16;;;;;;;50.73;15.13;;;2.30;16.50;;;;;;4997881;28;20485;-64
2022/03/13 03:16:44;;;;;;;50.40;15.27;;;2.30;16.50;;;;;;4996489;28;20476;-64
2022/03/13 03:19:11;;;;;;;49.70;15.40;;;2.30;16.40;;;;;;4996433;28;20535;-64
2022/03/13 03:21:38;;;;;;;51.77;14.57;;;2.30;16.20;;;;;;4998021;28;20472;-63
2022/03/13 03:24:12;;;;;;;49.60;14.53;;;2.30;16.20;;;;;;5001169;28;20495;-63
2022/03/13 03:26:39;;;;;;;46.97;14.20;;;2.20;16.20;;;;;;4998802;28;20467;-63
2022/03/13 03:29:06;;;;;;;48.67;13.83;;;2.20;16.10;;;;;;4995497;28;20461;-62
2022/03/13 03:31:39;;;;;;;54.80;15.07;;;2.20;16.10;;;;;;4995499;28;20484;-64
2022/03/13 03:34:09;;;;;;;53.97;13.90;;;2.20;16.10;;;;;;4998236;28;20568;-64
2022/03/13 03:36:40;;;;;;;46.80;13.00;;;2.20;16.10;;;;;;4998019;28;20464;-63
2022/03/13 03:39:07;;;;;;;49.50;14.40;;;2.10;16.30;;;;;;4994807;28;20473;-64
2022/03/13 03:41:34;;;;;;;51.37;16.30;;;2.10;16.40;;;;;;5005150;28;20498;-66
2022/03/13 03:44:01;;;;;;;54.73;13.77;;;2.00;16.60;;;;;;4998132;28;20492;-63
2022/03/13 03:46:28;;;;;;;51.43;14.37;;;2.00;16.60;;;;;;5000086;28;20479;-64
2022/03/13 03:48:56;;;;;;;53.17;15.47;;;1.90;16.90;;;;;;4997415;28;20865;-63
2022/03/13 03:51:23;;;;;;;51.47;14.70;;;1.90;17.00;;;;;;4995082;28;20487;-67
2022/03/13 03:53:50;;;;;;;53.00;15.37;;;1.90;17.10;;;;;;5002166;28;20487;-65
2022/03/13 03:56:17;;;;;;;53.47;16.53;;;1.80;17.30;;;;;;5001893;28;20484;-65
2022/03/13 03:58:44;;;;;;;58.07;18.60;;;1.80;17.50;;;;;;4995092;28;20522;-64
2022/03/13 04:01:11;;;;;;;56.83;18.30;;;1.80;17.80;;;;;;4992873;28;20473;-65
2022/03/13 04:03:38;;;;;;;56.60;19.10;;;1.70;18.00;;;;;;4998283;28;20495;-64
2022/03/13 04:06:06;;;;;;;53.53;17.37;;;1.80;18.20;;;;;;5003023;28;21024;-63
2022/03/13 04:08:34;;;;;;;56.93;16.23;;;1.70;18.20;;;;;;4995604;28;20954;-63
2022/03/13 04:11:01;;;;;;;55.13;18.07;;;1.70;18.50;;;;;;4994484;28;20465;-65
2022/03/13 04:13:29;;;;;;;53.43;17.20;;;1.70;18.50;;;;;;4996012;28;21262;-64
2022/03/13 04:15:56;;;;;;;56.20;17.67;;;1.70;18.90;;;;;;4994996;28;20488;-63
2022/03/13 04:18:23;;;;;;;54.60;17.17;;;1.60;18.90;;;;;;5003002;28;20476;-65
2022/03/13 04:20:50;;;;;;;54.10;16.30;;;1.60;19.10;;;;;;4998467;28;20522;-63
2022/03/13 04:23:18;;;;;;;54.17;17.10;;;1.50;19.00;;;;;;4996668;28;21148;-63
2022/03/13 04:25:46;;;;;;;54.47;17.10;;;1.50;18.90;;;;;;4994164;28;20471;-63
2022/03/13 04:28:13;;;;;;;60.33;16.60;;;1.50;18.70;;;;;;5000960;28;20461;-64
2022/03/13 04:30:40;;;;;;;53.97;18.00;;;1.50;18.70;;;;;;4999173;28;21005;-63
2022/03/13 04:33:07;;;;;;;53.30;16.47;;;1.50;18.80;;;;;;5000409;28;20517;-65
2022/03/13 04:35:35;;;;;;;55.40;16.97;;;1.50;18.90;;;;;;4998214;28;20514;-62
2022/03/13 04:38:02;;;;;;;54.70;16.77;;;1.50;19.00;;;;;;5003104;28;20464;-64
2022/03/13 04:40:30;;;;;;;55.83;16.83;;;1.40;19.10;;;;;;5000468;28;20467;-64
2022/03/13 04:42:57;;;;;;;54.70;16.03;;;1.40;19.00;;;;;;4992210;28;20467;-63
2022/03/13 04:45:25;;;;;;;55.77;17.30;;;1.40;19.00;;;;;;4994658;28;20472;-65
2022/03/13 04:47:52;;;;;;;54.73;16.67;;;1.40;19.20;;;;;;4995652;28;20503;-62
2022/03/13 04:50:19;;;;;;;56.33;17.47;;;1.40;19.10;;;;;;5003437;28;20455;-62
2022/03/13 04:52:46;;;;;;;54.20;17.50;;;1.40;19.20;;;;;;5002838;28;20471;-62
2022/03/13 04:55:13;;;;;;;51.73;16.37;;;1.40;19.20;;;;;;4993098;28;20484;-63
2022/03/13 04:57:41;;;;;;;55.13;15.13;;;1.30;19.10;;;;;;4995304;28;20460;-62
2022/03/13 05:00:09;;;;;;;55.10;15.93;;;1.40;19.00;;;;;;4998980;28;20479;-65
2022/03/13 05:02:35;;;;;;;51.27;15.93;;;1.30;18.90;;;;;;4997998;28;20464;-63
2022/03/13 05:05:02;;;;;;;54.60;16.33;;;1.30;19.00;;;;;;5023146;23;20508;-63
2022/03/13 05:07:30;;;;;;;53.80;16.30;;;1.30;18.90;;;;;;4997040;28;21182;-63
2022/03/13 05:09:57;;;;;;;52.53;14.90;;;1.30;19.00;;;;;;5000324;28;20890;-63
2022/03/13 05:12:27;;;;;;;53.57;17.50;;;1.30;18.80;;;;;;4989765;28;20465;-62
2022/03/13 05:14:55;;;;;;;57.93;16.53;;;1.30;18.70;;;;;;4999590;28;20986;-62
2022/03/13 05:17:22;;;;;;;52.03;18.03;;;1.30;18.70;;;;;;5005562;28;20455;-62
2022/03/13 05:19:49;;;;;;;53.80;16.17;;;1.30;18.70;;;;;;5004856;28;20463;-63
2022/03/13 05:22:16;;;;;;;57.03;16.77;;;1.30;18.80;;;;;;5002960;28;20472;-63
2022/03/13 05:24:43;;;;;;;53.90;18.00;;;1.30;18.70;;;;;;5002023;28;20479;-63
2022/03/13 05:27:10;;;;;;;49.60;15.67;;;1.20;18.60;;;;;;5002507;28;20463;-65
2022/03/13 05:29:37;;;;;;;51.63;15.93;;;1.20;18.70;;;;;;5002477;28;20463;-64
2022/03/13 05:32:06;;;;;;;49.97;14.80;;;1.20;18.70;;;;;;5002089;28;21040;-64
2022/03/13 05:34:33;;;;;;;54.83;17.87;;;1.20;18.80;;;;;;5004196;28;20476;-64
2022/03/13 05:36:59;;;;;;;51.13;15.40;;;1.20;18.80;;;;;;5001007;28;20480;-63
2022/03/13 05:39:26;;;;;;;53.97;16.10;;;1.20;18.70;;;;;;4999315;28;20473;-63
2022/03/13 05:41:53;;;;;;;54.40;17.50;;;1.20;18.70;;;;;;5000713;28;20468;-63
2022/03/13 05:44:20;;;;;;;52.07;15.90;;;1.10;18.90;;;;;;5004578;28;21079;-64
2022/03/13 05:46:48;;;;;;;55.80;18.50;;;1.10;19.10;;;;;;5001322;28;20463;-63
2022/03/13 05:49:16;;;;;;;56.83;16.00;;;1.20;19.00;;;;;;5009545;28;20510;-64
2022/03/13 05:51:43;;;;;;;48.43;15.00;;;1.20;19.10;;;;;;5008189;28;20852;-64
2022/03/13 05:54:10;;;;;;;51.90;15.57;;;1.50;19.00;;;;;;5005915;28;20546;-63
2022/03/13 05:56:37;;;;;;;56.87;16.00;;;1.50;18.90;;;;;;5004906;28;20479;-64
2022/03/13 05:59:04;;;;;;;52.00;14.97;;;1.70;18.90;;;;;;5009667;28;20467;-64
2022/03/13 06:01:31;;;;;;;50.90;14.93;;;1.80;18.90;;;;;;5005958;28;20491;-64
2022/03/13 06:03:57;;;;;;;47.00;14.90;;;2.10;18.80;;;;;;5007657;28;20487;-63
2022/03/13 06:06:25;;;;;;;51.57;15.90;;;2.30;19.00;;;;;;5008987;28;20468;-63
2022/03/13 06:08:52;;;;;;;52.97;14.33;;;2.50;18.80;;;;;;5005686;28;20463;-63
2022/03/13 06:11:19;;;;;;;50.83;15.90;;;2.70;18.20;;;;;;5007768;28;20973;-63
2022/03/13 06:13:46;;;;;;;52.90;16.27;;;3.10;17.40;;;;;;5006690;28;20483;-63
2022/03/13 06:16:12;;;;;;;53.23;15.37;;;3.60;16.40;;;;;;5009799;28;20495;-64
2022/03/13 06:18:39;;;;;;;48.13;14.23;;;4.30;15.50;;;;;;5005452;28;20981;-64
2022/03/13 06:21:06;;;;;;;48.30;14.57;;;4.90;14.40;;;;;;5007792;28;21088;-62
2022/03/13 06:23:34;;;;;;;50.03;14.00;;;5.70;13.00;;;;;;5004091;28;20484;-62
2022/03/13 06:26:02;;;;;;;47.87;14.57;;;6.50;11.60;;;;;;5001508;28;20553;-64
2022/03/13 06:28:30;;;;;;;49.37;15.20;;;7.00;10.30;;;;;;5002590;28;20598;-64
2022/03/13 06:30:57;;;;;;;47.33;15.07;;;7.40;9.30;;;;;;5006894;28;20471;-63
2022/03/13 06:33:27;;;;;;;48.20;15.37;;;7.70;8.70;;;;;;5005041;28;20504;-63
2022/03/13 06:35:53;;;;;;;47.00;14.03;;;8.00;8.40;;;;;;5006219;28;21055;-62
2022/03/13 06:38:21;;;;;;;47.80;16.40;;;8.20;7.50;;;;;;5002109;28;20467;-62
2022/03/13 06:40:50;;;;;;;45.47;14.00;;;8.30;8.00;;;;;;5002794;28;20456;-63
2022/03/13 06:43:17;;;;;;;44.77;14.53;;;8.50;7.50;;;;;;4996686;28;20460;-64
2022/03/13 06:45:44;;;;;;;47.60;14.93;;;8.70;7.20;;;;;;5008891;28;20460;-63
2022/03/13 06:48:11;;;;;;;44.77;13.77;;;8.80;7.30;;;;;;5006994;28;20546;-63
2022/03/13 06:50:38;;;;;;;47.03;14.00;;;8.90;7.80;;;;;;5006784;28;20892;-62
2022/03/13 06:53:05;;;;;;;42.13;11.80;;;9.10;7.40;;;;;;4999882;28;20467;-63
2022/03/13 06:55:32;;;;;;;42.10;11.13;;;9.30;5.90;;;;;;5008855;28;20508;-62
2022/03/13 06:58:00;;;;;;;45.03;13.40;;;9.50;5.50;;;;;;5012723;28;20919;-63
2022/03/13 07:00:27;;;;;;;46.30;11.13;;;9.80;4.70;;;;;;5006448;28;20477;-62
2022/03/13 07:02:53;;;;;;;42.30;11.87;;;10.00;4.30;;;;;;5008674;28;20467;-62
2022/03/13 07:05:20;;;;;;;41.37;11.87;;;10.30;3.70;;;;;;5006907;28;20497;-62
2022/03/13 07:07:47;;;;;;;41.50;12.37;;;10.70;3.10;;;;;;5007357;28;20472;-64
2022/03/13 07:10:14;;;;;;;40.70;12.07;;;11.10;2.40;;;;;;5003312;28;20475;-62
2022/03/13 07:12:44;;;;;;;43.77;12.57;;;11.60;1.90;;;;;;5005156;28;20468;-63
2022/03/13 07:15:13;;;;;;;44.97;13.57;;;11.90;1.40;;;;;;5000363;28;20483;-63
2022/03/13 07:17:41;;;;;;;43.93;14.00;;;12.30;1.00;;;;;;5006627;28;20460;-63
2022/03/13 07:20:09;;;;;;;43.77;14.57;;;12.80;1.00;;;;;;5005377;28;20555;-62
2022/03/13 07:22:35;;;;;;;44.57;15.90;;;13.40;1.00;;;;;;5003702;28;20459;-61
2022/03/13 07:25:02;;;;;;;43.03;15.27;;;14.50;1.00;;;;;;5006569;28;20507;-62
2022/03/13 07:27:29;;;;;;;40.60;13.63;;;15.80;1.00;;;;;;5001113;28;21036;-62
2022/03/13 07:29:56;;;;;;;42.77;15.00;;;17.00;1.00;;;;;;5000359;28;20461;-62
2022/03/13 07:32:24;;;;;;;43.80;16.27;;;18.20;1.00;;;;;;4993569;28;20487;-62
2022/03/13 07:34:51;;;;;;;45.83;17.93;;;19.40;1.00;;;;;;5003667;28;20488;-63
2022/03/13 07:37:18;;;;;;;44.50;17.70;;;20.60;1.00;;;;;;5004891;28;20487;-63
2022/03/13 07:39:47;;;;;;;43.47;17.47;;;21.90;1.00;;;;;;5004367;28;20472;-62
2022/03/13 07:42:14;;;;;;;52.47;24.10;;;22.80;1.00;;;;;;5003065;28;20486;-63
2022/03/13 07:44:41;;;;;;;43.43;18.70;;;23.50;1.00;;;;;;5003760;28;21043;-64
2022/03/13 07:47:08;;;;;;;44.73;19.13;;;24.00;1.00;;;;;;5000585;28;20468;-64
2022/03/13 07:49:36;;;;;;;43.67;19.47;;;24.40;1.00;;;;;;5000025;28;20463;-62
2022/03/13 07:52:03;;;;;;;43.40;17.87;;;25.20;1.00;;;;;;5005398;28;20477;-62
2022/03/13 07:54:30;;;;;;;41.13;18.37;;;26.20;1.00;;;;;;5004507;28;21024;-62
2022/03/13 07:56:56;;;;;;;44.43;17.70;;;26.70;1.00;;;;;;5001402;28;21135;-61
2022/03/13 07:59:23;;;;;;;40.97;17.30;;;27.60;1.00;;;;;;5001284;28;20481;-63
2022/03/13 08:01:50;;;;;;;40.97;18.47;;;28.20;1.00;;;;;;5002033;28;20476;-64
2022/03/13 08:04:17;;;;;;;41.10;17.80;;;29.20;1.00;;;;;;4997170;28;20557;-62
2022/03/13 08:06:45;;;;;;;59.73;30.60;;;29.80;1.00;;;;;;5000970;28;20464;-64
2022/03/13 08:09:12;;;;;;;42.33;18.37;;;30.10;1.00;;;;;;5002309;28;20475;-64
2022/03/13 08:11:39;;;;;;;40.50;18.37;;;30.70;1.00;;;;;;5003310;28;20464;-64
2022/03/13 08:14:07;;;;;;;39.70;17.40;;;31.20;1.00;;;;;;5003990;28;20482;-64
2022/03/13 08:16:34;;;;;;;40.63;19.50;;;31.60;1.00;;;;;;5002827;28;20479;-61
2022/03/13 08:19:01;;;;;;;42.33;20.87;;;32.30;1.00;;;;;;5001933;28;20463;-63
2022/03/13 08:21:28;;;;;;;41.60;18.93;;;33.10;1.00;;;;;;5000704;28;20476;-66
2022/03/13 08:23:57;;;;;;;39.73;18.77;;;33.80;1.00;;;;;;5003871;28;20993;-63
2022/03/13 08:26:24;;;;;;;39.67;19.53;;;34.20;1.00;;;;;;5004783;28;20492;-63
2022/03/13 08:28:51;;;;;;;42.47;20.40;;;34.20;1.00;;;;;;5002726;28;20460;-65
2022/03/13 08:31:18;;;;;;;41.03;19.90;;;34.80;1.00;;;;;;5002560;28;20468;-62
2022/03/13 08:33:45;;;;;;;42.27;22.03;;;35.50;1.00;;;;;;5004371;28;20487;-60
2022/03/13 08:36:12;;;;;;;42.17;20.47;;;36.00;1.00;;;;;;5003466;28;20519;-62
2022/03/13 08:38:39;;;;;;;42.03;20.33;;;36.30;1.00;;;;;;5007469;28;20539;-61
2022/03/13 08:41:07;;;;;;;38.50;20.23;;;36.80;1.00;;;;;;5001157;28;20464;-61
2022/03/13 08:43:34;;;;;;;39.53;19.63;;;37.40;1.00;;;;;;5000239;28;21168;-60
2022/03/13 08:46:01;;;;;;;36.27;18.53;;;37.90;1.00;;;;;;4995184;28;20463;-62
2022/03/13 08:48:28;;;;;;;39.00;20.10;;;38.10;1.00;;;;;;5003314;28;20974;-60
2022/03/13 08:50:55;;;;;;;38.70;19.63;;;38.00;1.00;;;;;;5000677;28;20463;-62
2022/03/13 08:53:23;;;;;;;38.13;20.67;;;37.40;1.00;;;;;;4998234;28;20469;-60
2022/03/13 08:55:50;;;;;;;39.37;19.67;;;36.20;1.00;;;;;;4997325;28;20472;-61
2022/03/13 08:58:18;;;;;;;41.97;21.20;;;36.30;1.00;;;;;;4997045;28;20487;-60
2022/03/13 09:00:45;;;;;;;39.23;19.47;;;36.70;1.00;;;;;;5000764;28;20478;-62
2022/03/13 09:03:12;;;;;;;39.07;19.77;;;37.20;1.00;;;;;;5001295;28;20476;-61
2022/03/13 09:05:39;;;;;;;40.37;21.47;;;37.40;1.00;;;;;;5001680;28;20724;-63
2022/03/13 09:08:06;;;;;;;38.30;19.60;;;37.70;1.00;;;;;;5002666;28;20467;-62
2022/03/13 09:10:33;;;;;;;39.60;19.63;;;38.10;1.00;;;;;;4995930;28;20465;-61
2022/03/13 09:12:59;;;;;;;37.80;20.23;;;38.30;1.00;;;;;;5001188;28;20468;-60
2022/03/13 09:15:28;;;;;;;36.50;18.63;;;38.70;1.00;;;;;;4999705;28;20495;-64
2022/03/13 09:17:54;;;;;;;37.37;20.73;;;38.80;1.00;;;;;;5002217;28;20487;-65
2022/03/13 09:20:21;;;;;;;44.13;24.30;;;39.00;1.00;;;;;;5003878;28;20460;-63
2022/03/13 09:22:49;;;;;;;38.80;20.67;;;39.00;1.00;;;;;;5000515;28;20476;-62
2022/03/13 09:25:18;;;;;;;39.37;21.10;;;39.30;1.00;;;;;;4999744;28;20921;-62
2022/03/13 09:27:44;;;;;;;39.50;20.00;;;39.50;1.00;;;;;;5003464;28;20485;-62
2022/03/13 09:30:12;;;;;;;37.87;20.47;;;39.40;1.00;;;;;;5001838;28;20467;-62
2022/03/13 09:32:40;;;;;;;36.87;20.10;;;39.30;1.00;;;;;;5001436;28;20463;-62
2022/03/13 09:35:08;;;;;;;41.57;20.47;;;39.50;1.00;;;;;;4999934;28;20492;-63
2022/03/13 09:37:35;;;;;;;37.83;19.10;;;39.70;1.00;;;;;;4998598;28;20498;-58
2022/03/13 09:40:02;;;;;;;37.17;20.30;;;40.30;1.00;;;;;;5001877;28;20479;-61
2022/03/13 09:42:28;;;;;;;37.00;21.70;;;40.40;1.00;;;;;;4996582;28;20471;-61
2022/03/13 09:44:55;;;;;;;37.17;21.00;;;40.80;1.00;;;;;;5002008;28;20522;-62
2022/03/13 09:47:22;;;;;;;39.23;20.60;;;40.90;1.00;;;;;;5002261;28;20528;-61
2022/03/13 09:49:51;;;;;;;36.80;19.50;;;41.00;1.00;;;;;;5001275;28;20475;-61
2022/03/13 09:52:17;;;;;;;37.13;19.80;;;40.80;1.00;;;;;;4997855;28;20456;-62
2022/03/13 09:54:44;;;;;;;41.47;21.30;;;41.00;1.00;;;;;;5003224;28;20545;-61
2022/03/13 09:57:11;;;;;;;37.43;19.67;;;41.30;1.00;;;;;;5004703;28;21005;-61
2022/03/13 09:59:38;;;;;;;36.20;20.67;;;41.30;1.00;;;;;;5006489;28;20460;-61
2022/03/13 10:02:06;;;;;;;37.80;21.90;;;41.60;1.00;;;;;;5005039;28;21262;-61
2022/03/13 10:04:33;;;;;;;38.43;21.80;;;41.40;1.00;;;;;;5005676;28;20499;-61
2022/03/13 10:07:03;;;;;;;37.20;20.53;;;41.30;1.00;;;;;;4998492;28;20456;-61
2022/03/13 10:09:31;;;;;;;41.20;20.77;;;41.50;1.00;;;;;;4995892;28;21057;-60
2022/03/13 10:12:08;;;;;;;38.37;21.83;;;41.90;1.00;;;;;;4994848;28;20982;-61
2022/03/13 10:14:35;;;;;;;38.73;20.37;;;41.90;1.00;;;;;;5003354;28;20495;-61
2022/03/13 10:17:02;;;;;;;42.83;20.47;;;42.20;1.00;;;;;;5000349;28;20531;-61
2022/03/13 10:19:31;;;;;;;41.60;20.93;;;42.60;1.00;;;;;;5002998;28;20468;-61
2022/03/13 10:22:05;;;;;;;49.77;31.23;;;42.70;1.00;;;;;;5003163;28;20958;-61
2022/03/13 10:24:41;;;;;;;40.97;21.47;;;42.90;1.00;;;;;;5006076;28;20509;-61
2022/03/13 10:27:15;;;;;;;37.67;21.27;;;43.10;1.00;;;;;;5004856;28;21024;-61
2022/03/13 10:29:43;;;;;;;36.03;20.90;;;43.10;1.00;;;;;;5002339;28;20474;-66
2022/03/13 10:32:10;;;;;;;38.83;22.20;;;43.20;1.00;;;;;;5001292;28;20487;-61
2022/03/13 10:34:38;;;;;;;36.13;19.87;;;43.20;1.00;;;;;;5007318;28;20479;-61
2022/03/13 10:37:07;;;;;;;36.40;20.80;;;43.10;1.00;;;;;;5006319;28;21087;-61
2022/03/13 10:39:34;;;;;;;37.30;20.90;;;43.10;1.00;;;;;;5006442;28;20833;-61
2022/03/13 10:42:03;;;;;;;37.00;20.67;;;42.90;1.00;;;;;;5008009;28;20468;-61
2022/03/13 10:44:34;;;;;;;39.60;21.73;;;42.90;1.00;;;;;;5004279;28;20521;-61
2022/03/13 10:47:04;;;;;;;38.03;20.77;;;42.60;1.00;;;;;;5009638;28;20547;-61
2022/03/13 10:49:41;;;;;;;36.67;21.70;;;42.50;1.00;;;;;;5007407;28;20981;-61
2022/03/13 10:52:26;;;;;;;38.40;20.10;;;42.60;1.00;;;;;;5010028;28;20856;-61
2022/03/13 10:54:54;;;;;;;37.97;20.73;;;42.70;1.00;;;;;;5004506;28;20484;-60
2022/03/13 10:57:21;;;;;;;37.63;19.57;;;42.80;1.00;;;;;;5010072;28;20483;-60
2022/03/13 11:00:08;;;;;;;38.67;21.30;;;42.80;1.00;;;;;;5006424;28;20490;-61
2022/03/13 11:02:35;;;;;;;36.87;20.03;;;42.50;1.00;;;;;;5008696;28;20483;-61
2022/03/13 11:05:01;;;;;;;37.27;19.33;;;42.50;1.00;;;;;;5030184;23;20491;-67
2022/03/13 11:07:29;;;;;;;36.03;18.67;;;42.40;1.00;;;;;;5009024;28;20467;-64
2022/03/13 11:09:57;;;;;;;38.43;20.67;;;42.20;1.00;;;;;;5005323;28;20479;-65
2022/03/13 11:12:26;;;;;;;35.40;18.43;;;41.90;1.00;;;;;;5007462;28;20486;-66
2022/03/13 11:14:55;;;;;;;35.77;19.10;;;41.70;1.00;;;;;;5004073;28;20480;-65
2022/03/13 11:17:24;;;;;;;34.77;17.93;;;41.50;1.00;;;;;;5007551;28;20873;-65
2022/03/13 11:19:52;;;;;;;34.60;16.90;;;41.40;1.00;;;;;;5004480;28;20475;-67
2022/03/13 11:22:21;;;;;;;34.93;17.20;;;41.20;1.00;;;;;;5002458;28;20465;-65
2022/03/13 11:24:50;;;;;;;36.07;17.33;;;40.90;1.00;;;;;;5006967;28;20526;-66
2022/03/13 11:27:17;;;;;;;35.70;17.03;;;40.70;1.00;;;;;;5009423;28;20530;-65
2022/03/13 11:29:46;;;;;;;34.10;16.33;;;40.40;1.00;;;;;;5004795;28;20468;-64
2022/03/13 11:32:33;;;;;;;35.40;17.00;;;40.10;1.00;;;;;;5007337;28;20551;-64
2022/03/13 11:35:27;;;;;;;39.53;17.97;;;39.80;1.00;;;;;;5007513;28;20507;-66
2022/03/13 11:37:55;;;;;;;36.40;16.40;;;39.30;1.00;;;;;;5002681;28;21009;-67
2022/03/13 11:40:32;;;;;;;39.50;21.33;;;38.80;1.00;;;;;;5004204;28;20464;-66
2022/03/13 11:43:10;;;;;;;36.17;15.80;;;37.90;1.00;;;;;;5008125;28;20463;-65
2022/03/13 11:45:39;;;;;;;36.77;16.57;;;36.70;1.00;;;;;;5004734;28;20487;-67
2022/03/13 11:48:36;;;;;;;35.40;16.10;;;35.60;1.00;;;;;;5006164;28;20546;-67
2022/03/13 11:51:05;;;;;;;36.83;15.00;;;34.50;1.00;;;;;;5006968;28;20467;-64
2022/03/13 11:53:44;;;;;;;34.37;14.40;;;33.60;1.00;;;;;;5005638;28;20591;-67
2022/03/13 11:56:20;;;;;;;35.87;14.63;;;33.20;1.00;;;;;;5000020;28;20483;-65
2022/03/13 11:58:49;;;;;;;36.70;15.60;;;33.00;1.00;;;;;;5008518;28;20484;-66
2022/03/13 12:01:20;;;;;;;34.07;13.30;;;32.70;1.00;;;;;;5006310;28;20480;-65
2022/03/13 12:04:25;;;;;;;36.47;14.03;;;32.30;1.00;;;;;;5008600;28;20494;-64
2022/03/13 12:06:56;;;;;;;37.10;14.50;;;31.20;1.00;;;;;;5005245;28;20464;-68
2022/03/13 12:09:29;;;;;;;38.03;15.40;;;30.10;1.00;;;;;;5007408;28;20467;-64
2022/03/13 12:12:05;;;;;;;38.13;15.37;;;28.90;1.00;;;;;;4998100;28;20463;-69
2022/03/13 12:14:53;;;;;;;38.03;15.80;;;28.10;1.00;;;;;;5002413;28;20491;-65
2022/03/13 12:17:20;;;;;;;38.13;14.60;;;27.60;1.00;;;;;;5003100;28;20487;-65
2022/03/13 12:19:48;;;;;;;38.80;15.00;;;27.40;1.00;;;;;;5008148;28;20460;-67
2022/03/13 12:22:15;;;;;;;38.73;14.67;;;27.00;1.00;;;;;;5002229;28;20961;-65
2022/03/13 12:24:49;;;;;;;37.43;15.00;;;26.40;1.00;;;;;;5003898;28;20480;-66
2022/03/13 12:27:18;;;;;;;38.57;14.30;;;25.70;1.00;;;;;;5007795;28;20467;-66
2022/03/13 12:29:55;;;;;;;39.20;14.83;;;25.10;1.00;;;;;;5007900;28;20591;-67
2022/03/13 12:32:23;;;;;;;40.77;15.27;;;24.60;1.00;;;;;;5005046;28;20471;-65
2022/03/13 12:34:53;;;;;;;40.10;14.17;;;24.20;1.00;;;;;;5007690;28;20519;-64
2022/03/13 12:37:20;;;;;;;40.57;14.47;;;23.80;1.00;;;;;;5005043;28;20476;-66
2022/03/13 12:39:51;;;;;;;39.10;14.67;;;23.50;1.00;;;;;;5006427;28;20467;-65
2022/03/13 12:42:24;;;;;;;41.30;13.77;;;23.20;1.00;;;;;;5006185;28;20468;-66
2022/03/13 12:45:03;;;;;;;39.70;15.30;;;22.90;1.00;;;;;;5004227;28;20487;-66